Maritime — WCZ5279 — position and weather

sailwx.info

Track history (hours):
 
Tides and Currents Weather Stations Pressure Air Temp Water Temp Dewpoint Dewpoint Depression Visibility Wind Speed Wind Dir Waves Ship Positions

Maritime

Owner: ERGON MARINE & INDUSTRIAL SUPPLY, VICKSBURG, MS. More information available from US FCC via Universal Licensing System.

Last reported at 2017-Jan-23 03:33 UTC. Time now 2017-Jan-23 06:37 UTC.
Position N 32°23' W 090°53'.

; draft 3 m.

Type: Towing. MMSI: 367327920.

Date/timePositionNaut miles runAvg speedWind from/ knotsBaromVisibWave heightAir tempDewpointWater temp
2017-Jan-23 03:33N 32°23' W 090°53'0 0.0
2017-Jan-23 02:33N 32°23' W 090°53'0 0.4
2017-Jan-23 01:33N 32°23' W 090°53'4 3.6
2017-Jan-23 00:33N 32°20' W 090°54'0 0.0
2017-Jan-22 23:33N 32°20' W 090°54'1 0.7
2017-Jan-22 22:33N 32°20' W 090°54'0 0.1
2017-Jan-22 21:33N 32°20' W 090°54'3 2.9
2017-Jan-22 20:33N 32°23' W 090°53'2 2.0
2017-Jan-22 19:33N 32°21' W 090°53'2 2.1
2017-Jan-22 18:33N 32°21' W 090°56'1 0.9
2017-Jan-22 17:33N 32°21' W 090°57'1 1.1
2017-Jan-22 16:33N 32°21' W 090°55'1 1.4
2017-Jan-22 15:33N 32°20' W 090°54'0 0.1
2017-Jan-22 14:33N 32°21' W 090°54'0 0.1
2017-Jan-22 13:33N 32°21' W 090°53'1 1.1
2017-Jan-22 12:33N 32°20' W 090°54'0 0.0
2017-Jan-22 11:33N 32°20' W 090°54'1 0.9
2017-Jan-22 10:33N 32°20' W 090°54'0 0.0
2017-Jan-22 09:33N 32°20' W 090°54'0 0.0
2017-Jan-22 08:33N 32°20' W 090°54'0 0.0
2017-Jan-22 07:33N 32°20' W 090°54'0 0.0
2017-Jan-22 06:33N 32°20' W 090°54'0 0.0
2017-Jan-22 05:33N 32°21' W 090°54'3 2.5
2017-Jan-22 04:32N 32°23' W 090°53'1 0.5
2017-Jan-22 03:33N 32°23' W 090°53'2 2.5
2017-Jan-22 02:33N 32°21' W 090°53'2 2.4
2017-Jan-22 01:33N 32°23' W 090°53'3 3.1
2017-Jan-22 00:33N 32°20' W 090°54'0 0.5
2017-Jan-21 23:33N 32°20' W 090°54'1 0.6
2017-Jan-21 22:33N 32°20' W 090°54'3 3.1
2017-Jan-21 21:33N 32°23' W 090°53'5 4.8
2017-Jan-21 20:32N 32°18' W 090°55'1 0.5
2017-Jan-21 19:33N 32°18' W 090°55'0 0.1
2017-Jan-21 18:33N 32°18' W 090°55'2 2.2
2017-Jan-21 17:33N 32°20' W 090°54'2 2.1
2017-Jan-21 16:32N 32°18' W 090°55'3 3.1
2017-Jan-21 15:32N 32°21' W 090°53'2 1.8
2017-Jan-21 14:33N 32°22' W 090°53'3 3.1
2017-Jan-21 13:33N 32°20' W 090°54'0 0.0
2017-Jan-21 12:33N 32°20' W 090°54'1 1.4
2017-Jan-21 11:33N 32°21' W 090°53'2 2.2
2017-Jan-21 10:33N 32°23' W 090°53'0 0.0
2017-Jan-21 09:33N 32°23' W 090°53'0 0.0
2017-Jan-21 08:33N 32°23' W 090°53'0 0.4
2017-Jan-21 07:33N 32°23' W 090°53'0 0.5
2017-Jan-21 06:33N 32°23' W 090°53'3 2.6
2017-Jan-21 05:33N 32°21' W 090°53'0 0.2
2017-Jan-21 04:33N 32°20' W 090°54'0 0.1
2017-Jan-21 03:33N 32°20' W 090°54'0 0.3
2017-Jan-21 02:33N 32°21' W 090°54'3 2.6
2017-Jan-21 01:33N 32°23' W 090°54'1 1.2
2017-Jan-21 00:33N 32°22' W 090°52'3 3.1
2017-Jan-20 23:33N 32°20' W 090°54'2 1.8
2017-Jan-20 22:33N 32°21' W 090°53'2 2.0
2017-Jan-20 21:33N 32°23' W 090°53'0 0.1
2017-Jan-20 20:33N 32°23' W 090°54'0 0.1
2017-Jan-20 19:33N 32°23' W 090°54'1 0.8
2017-Jan-20 18:33N 32°23' W 090°53'1 0.5
2017-Jan-20 17:33N 32°23' W 090°53'1 0.6
2017-Jan-20 16:33N 32°23' W 090°53'1 1.2
2017-Jan-20 15:33N 32°22' W 090°53'5 5.3
2017-Jan-20 14:33N 32°21' W 090°59'4 3.5
2017-Jan-20 13:33N 32°21' W 090°55'1 1.3
2017-Jan-20 12:32N 32°20' W 090°54'1 0.9
2017-Jan-20 11:33N 32°20' W 090°54'3 2.5
2017-Jan-20 10:33N 32°23' W 090°53'0 0.1
2017-Jan-20 09:34N 32°23' W 090°53'0 0.0
2017-Jan-20 08:33N 32°23' W 090°53'0 0.0
2017-Jan-20 07:33N 32°23' W 090°53'0 0.0
2017-Jan-20 06:33N 32°23' W 090°53'0 0.5
2017-Jan-20 05:33N 32°23' W 090°53'0 0.0
2017-Jan-20 04:33N 32°23' W 090°53'0 0.0
2017-Jan-20 03:34N 32°23' W 090°53'1 1.0
2017-Jan-20 02:33N 32°23' W 090°55'2 1.9
2017-Jan-20 01:33N 32°22' W 090°53'2 2.4
2017-Jan-20 00:33N 32°20' W 090°54'2 1.8
2017-Jan-19 23:33N 32°21' W 090°53'2 2.0
2017-Jan-19 22:33N 32°23' W 090°53'0 0.0
2017-Jan-19 21:33N 32°23' W 090°53'0 0.0
2017-Jan-19 20:33N 32°23' W 090°53'0 0.1
2017-Jan-19 19:33N 32°23' W 090°53'0 0.0
2017-Jan-19 18:33N 32°23' W 090°53'0 0.5
2017-Jan-19 17:34N 32°23' W 090°54'1 1.0
2017-Jan-19 16:34N 32°23' W 090°53'0 0.0
2017-Jan-19 15:34N 32°23' W 090°53'0 0.4
2017-Jan-19 14:33N 32°23' W 090°53'0 0.1
2017-Jan-19 13:33N 32°23' W 090°53'4 3.6
2017-Jan-19 12:33N 32°20' W 090°54'0 0.0
2017-Jan-19 11:33N 32°20' W 090°54'3 2.9
2017-Jan-19 10:33N 32°22' W 090°53'1 1.1
2017-Jan-19 09:33N 32°23' W 090°53'0 0.0
2017-Jan-19 08:33N 32°23' W 090°53'0 0.0
2017-Jan-19 07:33N 32°23' W 090°53'0 0.0
2017-Jan-19 06:33N 32°23' W 090°53'0 0.0
2017-Jan-19 05:33N 32°23' W 090°53'0 0.0
2017-Jan-19 04:33N 32°23' W 090°53'3 2.9
2017-Jan-19 03:33N 32°20' W 090°54'0 0.1
2017-Jan-19 02:33N 32°20' W 090°54'0 0.2
2017-Jan-19 01:33N 32°20' W 090°54'1 0.7
2017-Jan-19 00:33N 32°20' W 090°54'4 3.6
2017-Jan-18 23:34N 32°23' W 090°53'3 3.0
2017-Jan-18 22:34N 32°20' W 090°54'3 3.3
2017-Jan-18 21:34N 32°21' W 090°58'3 3.4
2017-Jan-18 20:34N 32°19' W 090°55'2 1.9
2017-Jan-18 19:34N 32°20' W 090°54'3 2.9
2017-Jan-18 18:34N 32°23' W 090°53'4 3.7
2017-Jan-18 17:34N 32°20' W 090°54'0 0.3
2017-Jan-18 16:33N 32°20' W 090°54'3 3.1
2017-Jan-18 15:34N 32°23' W 090°53'6 5.7
2017-Jan-18 14:34N 32°21' W 090°59'4 3.9
2017-Jan-18 13:34N 32°20' W 090°54'1 1.1
2017-Jan-18 12:34N 32°20' W 090°54'0 0.0
2017-Jan-18 11:33N 32°20' W 090°54'4 3.7
2017-Jan-18 10:34N 32°23' W 090°53'0 0.0
2017-Jan-18 09:33N 32°23' W 090°53'0 0.0
2017-Jan-18 08:34N 32°23' W 090°53'0 0.0
2017-Jan-18 07:34N 32°23' W 090°53'0 0.3
2017-Jan-18 06:34N 32°23' W 090°53'4 3.6
2017-Jan-18 05:34N 32°20' W 090°54'4 3.6
2017-Jan-18 04:33N 32°23' W 090°53'0 0.2
2017-Jan-18 03:34N 32°23' W 090°54'0 0.1
2017-Jan-18 02:34N 32°23' W 090°53'0 0.2
2017-Jan-18 01:34N 32°23' W 090°53'4 3.6
2017-Jan-18 00:34N 32°20' W 090°54'0 0.0
2017-Jan-17 23:33N 32°20' W 090°54'1 1.1
2017-Jan-17 22:33N 32°21' W 090°54'2 1.5
2017-Jan-17 21:33N 32°22' W 090°53'1 1.0
2017-Jan-17 20:33N 32°23' W 090°53'0 0.5
2017-Jan-17 19:33N 32°23' W 090°53'1 0.7
2017-Jan-17 18:33N 32°23' W 090°53'1 1.4
2017-Jan-17 17:33N 32°21' W 090°53'1 1.1
2017-Jan-17 16:33N 32°22' W 090°53'1 0.6
2017-Jan-17 15:33N 32°23' W 090°53'0 0.4
2017-Jan-17 14:33N 32°23' W 090°53'1 1.3
2017-Jan-17 13:33N 32°23' W 090°55'3 3.3
2017-Jan-17 12:33N 32°20' W 090°54'0 0.4
2017-Jan-17 11:33N 32°20' W 090°54'3 3.5
2017-Jan-17 10:33N 32°23' W 090°53'1 1.0
2017-Jan-17 09:33N 32°23' W 090°54'0 0.0
2017-Jan-17 08:33N 32°23' W 090°54'0 0.0
2017-Jan-17 07:33N 32°23' W 090°54'0 0.3
2017-Jan-17 06:33N 32°23' W 090°53'0 0.3
2017-Jan-17 05:33N 32°23' W 090°54'0 0.0
2017-Jan-17 04:33N 32°23' W 090°54'0 0.0
2017-Jan-17 03:33N 32°23' W 090°54'0 0.0
2017-Jan-17 02:33N 32°23' W 090°54'1 1.1
2017-Jan-17 01:33N 32°23' W 090°53'3 3.3
2017-Jan-17 00:34N 32°20' W 090°54'3 3.2
2017-Jan-16 23:34N 32°23' W 090°52'0 0.0
2017-Jan-16 22:34N 32°23' W 090°52'0 0.3
2017-Jan-16 21:33N 32°22' W 090°53'2 1.9
2017-Jan-16 20:34N 32°21' W 090°54'0 0.0
2017-Jan-16 19:33N 32°21' W 090°54'2 2.2
2017-Jan-16 18:34N 32°23' W 090°52'1 0.6
2017-Jan-16 17:34N 32°23' W 090°53'1 0.6
2017-Jan-16 16:34N 32°23' W 090°52'3 3.4
2017-Jan-16 15:34N 32°19' W 090°54'2 1.7
2017-Jan-16 14:34N 32°18' W 090°55'3 2.5
2017-Jan-16 13:34N 32°20' W 090°54'1 0.7
2017-Jan-16 12:34N 32°20' W 090°54'1 0.9
2017-Jan-16 11:33N 32°20' W 090°54'3 2.7
2017-Jan-16 10:34N 32°23' W 090°53'0 0.0
2017-Jan-16 09:34N 32°23' W 090°53'0 0.0
2017-Jan-16 08:34N 32°23' W 090°53'0 0.0
2017-Jan-16 07:34N 32°23' W 090°53'0 0.0
2017-Jan-16 06:33N 32°23' W 090°53'0 0.0
2017-Jan-16 05:34N 32°23' W 090°53'0 0.0
2017-Jan-16 04:34N 32°23' W 090°53'2 1.8
2017-Jan-16 03:33N 32°21' W 090°53'2 1.7
2017-Jan-16 02:33N 32°23' W 090°53'1 0.5
2017-Jan-16 01:34N 32°23' W 090°54'3 2.5
2017-Jan-16 00:34N 32°21' W 090°53'0 0.2
2017-Jan-15 23:33N 32°20' W 090°54'3 2.7
2017-Jan-15 22:33N 32°18' W 090°55'5 5.1
2017-Jan-15 21:33N 32°23' W 090°53'1 0.5
2017-Jan-15 20:33N 32°23' W 090°53'0 0.0
2017-Jan-15 19:33N 32°23' W 090°53'0 0.0
2017-Jan-15 18:33N 32°23' W 090°53'2 2.4
2017-Jan-15 17:33N 32°21' W 090°53'3 3.0
2017-Jan-15 16:33N 32°18' W 090°55'4 4.1
2017-Jan-15 15:33N 32°22' W 090°53'1 0.6
2017-Jan-15 14:33N 32°21' W 090°53'2 2.2
2017-Jan-15 13:33N 32°23' W 090°54'4 3.7
2017-Jan-15 12:33N 32°20' W 090°54'0 0.0
2017-Jan-15 11:33N 32°20' W 090°54'0 0.0
2017-Jan-15 10:33N 32°20' W 090°54'2 1.7
2017-Jan-15 09:33N 32°18' W 090°55'2 2.0
2017-Jan-15 08:33N 32°20' W 090°54'1 1.3
2017-Jan-15 07:33N 32°19' W 090°55'2 1.6
2017-Jan-15 06:33N 32°18' W 090°56'3 2.9
2017-Jan-15 05:33N 32°20' W 090°54'2 2.2
2017-Jan-15 04:33N 32°21' W 090°56'1 1.2
2017-Jan-15 03:33N 32°21' W 090°58'1 1.2
2017-Jan-15 02:33N 32°21' W 090°56'3 3.3
2017-Jan-15 01:33N 32°22' W 090°53'2 2.5
2017-Jan-15 00:33N 32°20' W 090°54'0 0.5
2017-Jan-14 23:33N 32°20' W 090°54'0 0.1
2017-Jan-14 22:33N 32°20' W 090°54'3 3.2
2017-Jan-14 21:33N 32°23' W 090°52'1 0.9
2017-Jan-14 20:33N 32°23' W 090°53'0 0.0
2017-Jan-14 19:33N 32°23' W 090°53'0 0.0
2017-Jan-14 18:33N 32°23' W 090°53'0 0.0
2017-Jan-14 17:33N 32°23' W 090°53'0 0.0
2017-Jan-14 16:33N 32°23' W 090°53'0 0.0
2017-Jan-14 15:33N 32°23' W 090°53'0 0.0
2017-Jan-14 14:33N 32°23' W 090°53'3 3.2
2017-Jan-14 13:33N 32°20' W 090°54'0 0.4
2017-Jan-14 12:33N 32°20' W 090°54'0 0.0
2017-Jan-14 11:33N 32°20' W 090°54'4 3.6
2017-Jan-14 10:33N 32°23' W 090°53'0 0.5
2017-Jan-14 09:33N 32°23' W 090°53'0 0.0
2017-Jan-14 08:33N 32°23' W 090°53'0 0.0
2017-Jan-14 07:33N 32°23' W 090°53'0 0.0
2017-Jan-14 06:34N 32°23' W 090°53'0 0.0
2017-Jan-14 05:33N 32°23' W 090°53'0 0.0
2017-Jan-14 04:33N 32°23' W 090°53'0 0.0
2017-Jan-14 03:33N 32°23' W 090°53'4 0.9
2017-Jan-13 23:33N 32°20' W 090°54'4 3.6
2017-Jan-13 22:33N 32°23' W 090°54'1 0.6
2017-Jan-13 21:33N 32°23' W 090°53'0 0.1
2017-Jan-13 20:33N 32°23' W 090°53'0 0.0
2017-Jan-13 19:33N 32°23' W 090°53'1 0.8
2017-Jan-13 18:33N 32°23' W 090°53'1 0.8
2017-Jan-13 17:33N 32°23' W 090°53'0 0.1
2017-Jan-13 16:33N 32°23' W 090°53'0 0.2
2017-Jan-13 15:33N 32°23' W 090°53'1 0.8
2017-Jan-13 14:33N 32°23' W 090°52'0 0.5
2017-Jan-13 13:33N 32°22' W 090°53'3 2.7
2017-Jan-13 12:33N 32°20' W 090°54'3 3.5
2017-Jan-13 11:33N 32°23' W 090°53'1 0.6
2017-Jan-13 10:34N 32°23' W 090°53'0 0.0
2017-Jan-13 09:34N 32°23' W 090°53'0 0.0
2017-Jan-13 08:34N 32°23' W 090°53'0 0.0
2017-Jan-13 07:34N 32°23' W 090°53'1 0.7
2017-Jan-13 06:33N 32°23' W 090°53'2 1.7
2017-Jan-13 05:34N 32°23' W 090°55'2 1.9
2017-Jan-13 04:33N 32°23' W 090°52'1 1.0
2017-Jan-13 03:34N 32°23' W 090°53'  
Track history (hours):
 
Tides and Currents Weather Stations Pressure Air Temp Water Temp Dewpoint Dewpoint Depression Visibility Wind Speed Wind Dir Waves Ship Positions

Maritime

Owner: ERGON MARINE & INDUSTRIAL SUPPLY, VICKSBURG, MS. More information available from US FCC via Universal Licensing System.

Last reported at 2017-Jan-23 03:33 UTC. Time now 2017-Jan-23 06:37 UTC.
Position N 32°23' W 090°53'.

; draft 3 m.

Type: Towing. MMSI: 367327920.

Date/timePositionNaut miles runAvg speedWind from/ knotsBaromVisibWave heightAir tempDewpointWater temp
2017-Jan-23 03:33N 32°23' W 090°53'0 0.0
2017-Jan-23 02:33N 32°23' W 090°53'0 0.4
2017-Jan-23 01:33N 32°23' W 090°53'4 3.6
2017-Jan-23 00:33N 32°20' W 090°54'0 0.0
2017-Jan-22 23:33N 32°20' W 090°54'1 0.7
2017-Jan-22 22:33N 32°20' W 090°54'0 0.1
2017-Jan-22 21:33N 32°20' W 090°54'3 2.9
2017-Jan-22 20:33N 32°23' W 090°53'2 2.0
2017-Jan-22 19:33N 32°21' W 090°53'2 2.1
2017-Jan-22 18:33N 32°21' W 090°56'1 0.9
2017-Jan-22 17:33N 32°21' W 090°57'1 1.1
2017-Jan-22 16:33N 32°21' W 090°55'1 1.4
2017-Jan-22 15:33N 32°20' W 090°54'0 0.1
2017-Jan-22 14:33N 32°21' W 090°54'0 0.1
2017-Jan-22 13:33N 32°21' W 090°53'1 1.1
2017-Jan-22 12:33N 32°20' W 090°54'0 0.0
2017-Jan-22 11:33N 32°20' W 090°54'1 0.9
2017-Jan-22 10:33N 32°20' W 090°54'0 0.0
2017-Jan-22 09:33N 32°20' W 090°54'0 0.0
2017-Jan-22 08:33N 32°20' W 090°54'0 0.0
2017-Jan-22 07:33N 32°20' W 090°54'0 0.0
2017-Jan-22 06:33N 32°20' W 090°54'0 0.0
2017-Jan-22 05:33N 32°21' W 090°54'3 2.5
2017-Jan-22 04:32N 32°23' W 090°53'1 0.5
2017-Jan-22 03:33N 32°23' W 090°53'2 2.5
2017-Jan-22 02:33N 32°21' W 090°53'2 2.4
2017-Jan-22 01:33N 32°23' W 090°53'3 3.1
2017-Jan-22 00:33N 32°20' W 090°54'0 0.5
2017-Jan-21 23:33N 32°20' W 090°54'1 0.6
2017-Jan-21 22:33N 32°20' W 090°54'3 3.1
2017-Jan-21 21:33N 32°23' W 090°53'5 4.8
2017-Jan-21 20:32N 32°18' W 090°55'1 0.5
2017-Jan-21 19:33N 32°18' W 090°55'0 0.1
2017-Jan-21 18:33N 32°18' W 090°55'2 2.2
2017-Jan-21 17:33N 32°20' W 090°54'2 2.1
2017-Jan-21 16:32N 32°18' W 090°55'3 3.1
2017-Jan-21 15:32N 32°21' W 090°53'2 1.8
2017-Jan-21 14:33N 32°22' W 090°53'3 3.1
2017-Jan-21 13:33N 32°20' W 090°54'0 0.0
2017-Jan-21 12:33N 32°20' W 090°54'1 1.4
2017-Jan-21 11:33N 32°21' W 090°53'2 2.2
2017-Jan-21 10:33N 32°23' W 090°53'0 0.0
2017-Jan-21 09:33N 32°23' W 090°53'0 0.0
2017-Jan-21 08:33N 32°23' W 090°53'0 0.4
2017-Jan-21 07:33N 32°23' W 090°53'0 0.5
2017-Jan-21 06:33N 32°23' W 090°53'3 2.6
2017-Jan-21 05:33N 32°21' W 090°53'0 0.2
2017-Jan-21 04:33N 32°20' W 090°54'0 0.1
2017-Jan-21 03:33N 32°20' W 090°54'0 0.3
2017-Jan-21 02:33N 32°21' W 090°54'3 2.6
2017-Jan-21 01:33N 32°23' W 090°54'1 1.2
2017-Jan-21 00:33N 32°22' W 090°52'3 3.1
2017-Jan-20 23:33N 32°20' W 090°54'2 1.8
2017-Jan-20 22:33N 32°21' W 090°53'2 2.0
2017-Jan-20 21:33N 32°23' W 090°53'0 0.1
2017-Jan-20 20:33N 32°23' W 090°54'0 0.1
2017-Jan-20 19:33N 32°23' W 090°54'1 0.8
2017-Jan-20 18:33N 32°23' W 090°53'1 0.5
2017-Jan-20 17:33N 32°23' W 090°53'1 0.6
2017-Jan-20 16:33N 32°23' W 090°53'1 1.2
2017-Jan-20 15:33N 32°22' W 090°53'5 5.3
2017-Jan-20 14:33N 32°21' W 090°59'4 3.5
2017-Jan-20 13:33N 32°21' W 090°55'1 1.3
2017-Jan-20 12:32N 32°20' W 090°54'1 0.9
2017-Jan-20 11:33N 32°20' W 090°54'3 2.5
2017-Jan-20 10:33N 32°23' W 090°53'0 0.1
2017-Jan-20 09:34N 32°23' W 090°53'0 0.0
2017-Jan-20 08:33N 32°23' W 090°53'0 0.0
2017-Jan-20 07:33N 32°23' W 090°53'0 0.0
2017-Jan-20 06:33N 32°23' W 090°53'0 0.5
2017-Jan-20 05:33N 32°23' W 090°53'0 0.0
2017-Jan-20 04:33N 32°23' W 090°53'0 0.0
2017-Jan-20 03:34N 32°23' W 090°53'1 1.0
2017-Jan-20 02:33N 32°23' W 090°55'2 1.9
2017-Jan-20 01:33N 32°22' W 090°53'2 2.4
2017-Jan-20 00:33N 32°20' W 090°54'2 1.8
2017-Jan-19 23:33N 32°21' W 090°53'2 2.0
2017-Jan-19 22:33N 32°23' W 090°53'0 0.0
2017-Jan-19 21:33N 32°23' W 090°53'0 0.0
2017-Jan-19 20:33N 32°23' W 090°53'0 0.1
2017-Jan-19 19:33N 32°23' W 090°53'0 0.0
2017-Jan-19 18:33N 32°23' W 090°53'0 0.5
2017-Jan-19 17:34N 32°23' W 090°54'1 1.0
2017-Jan-19 16:34N 32°23' W 090°53'0 0.0
2017-Jan-19 15:34N 32°23' W 090°53'0 0.4
2017-Jan-19 14:33N 32°23' W 090°53'0 0.1
2017-Jan-19 13:33N 32°23' W 090°53'4 3.6
2017-Jan-19 12:33N 32°20' W 090°54'0 0.0
2017-Jan-19 11:33N 32°20' W 090°54'3 2.9
2017-Jan-19 10:33N 32°22' W 090°53'1 1.1
2017-Jan-19 09:33N 32°23' W 090°53'0 0.0
2017-Jan-19 08:33N 32°23' W 090°53'0 0.0
2017-Jan-19 07:33N 32°23' W 090°53'0 0.0
2017-Jan-19 06:33N 32°23' W 090°53'0 0.0
2017-Jan-19 05:33N 32°23' W 090°53'0 0.0
2017-Jan-19 04:33N 32°23' W 090°53'3 2.9
2017-Jan-19 03:33N 32°20' W 090°54'0 0.1
2017-Jan-19 02:33N 32°20' W 090°54'0 0.2
2017-Jan-19 01:33N 32°20' W 090°54'1 0.7
2017-Jan-19 00:33N 32°20' W 090°54'4 3.6
2017-Jan-18 23:34N 32°23' W 090°53'3 3.0
2017-Jan-18 22:34N 32°20' W 090°54'3 3.3
2017-Jan-18 21:34N 32°21' W 090°58'3 3.4
2017-Jan-18 20:34N 32°19' W 090°55'2 1.9
2017-Jan-18 19:34N 32°20' W 090°54'3 2.9
2017-Jan-18 18:34N 32°23' W 090°53'4 3.7
2017-Jan-18 17:34N 32°20' W 090°54'0 0.3
2017-Jan-18 16:33N 32°20' W 090°54'3 3.1
2017-Jan-18 15:34N 32°23' W 090°53'6 5.7
2017-Jan-18 14:34N 32°21' W 090°59'4 3.9
2017-Jan-18 13:34N 32°20' W 090°54'1 1.1
2017-Jan-18 12:34N 32°20' W 090°54'0 0.0
2017-Jan-18 11:33N 32°20' W 090°54'4 3.7
2017-Jan-18 10:34N 32°23' W 090°53'0 0.0
2017-Jan-18 09:33N 32°23' W 090°53'0 0.0
2017-Jan-18 08:34N 32°23' W 090°53'0 0.0
2017-Jan-18 07:34N 32°23' W 090°53'0 0.3
2017-Jan-18 06:34N 32°23' W 090°53'4 3.6
2017-Jan-18 05:34N 32°20' W 090°54'4 3.6
2017-Jan-18 04:33N 32°23' W 090°53'0 0.2
2017-Jan-18 03:34N 32°23' W 090°54'0 0.1
2017-Jan-18 02:34N 32°23' W 090°53'0 0.2
2017-Jan-18 01:34N 32°23' W 090°53'4 3.6
2017-Jan-18 00:34N 32°20' W 090°54'0 0.0
2017-Jan-17 23:33N 32°20' W 090°54'1 1.1
2017-Jan-17 22:33N 32°21' W 090°54'2 1.5
2017-Jan-17 21:33N 32°22' W 090°53'1 1.0
2017-Jan-17 20:33N 32°23' W 090°53'0 0.5
2017-Jan-17 19:33N 32°23' W 090°53'1 0.7
2017-Jan-17 18:33N 32°23' W 090°53'1 1.4
2017-Jan-17 17:33N 32°21' W 090°53'1 1.1
2017-Jan-17 16:33N 32°22' W 090°53'1 0.6
2017-Jan-17 15:33N 32°23' W 090°53'0 0.4
2017-Jan-17 14:33N 32°23' W 090°53'1 1.3
2017-Jan-17 13:33N 32°23' W 090°55'3 3.3
2017-Jan-17 12:33N 32°20' W 090°54'0 0.4
2017-Jan-17 11:33N 32°20' W 090°54'3 3.5
2017-Jan-17 10:33N 32°23' W 090°53'1 1.0
2017-Jan-17 09:33N 32°23' W 090°54'0 0.0
2017-Jan-17 08:33N 32°23' W 090°54'0 0.0
2017-Jan-17 07:33N 32°23' W 090°54'0 0.3
2017-Jan-17 06:33N 32°23' W 090°53'0 0.3
2017-Jan-17 05:33N 32°23' W 090°54'0 0.0
2017-Jan-17 04:33N 32°23' W 090°54'0 0.0
2017-Jan-17 03:33N 32°23' W 090°54'0 0.0
2017-Jan-17 02:33N 32°23' W 090°54'1 1.1
2017-Jan-17 01:33N 32°23' W 090°53'3 3.3
2017-Jan-17 00:34N 32°20' W 090°54'3 3.2
2017-Jan-16 23:34N 32°23' W 090°52'0 0.0
2017-Jan-16 22:34N 32°23' W 090°52'0 0.3
2017-Jan-16 21:33N 32°22' W 090°53'2 1.9
2017-Jan-16 20:34N 32°21' W 090°54'0 0.0
2017-Jan-16 19:33N 32°21' W 090°54'2 2.2
2017-Jan-16 18:34N 32°23' W 090°52'1 0.6
2017-Jan-16 17:34N 32°23' W 090°53'1 0.6
2017-Jan-16 16:34N 32°23' W 090°52'3 3.4
2017-Jan-16 15:34N 32°19' W 090°54'2 1.7
2017-Jan-16 14:34N 32°18' W 090°55'3 2.5
2017-Jan-16 13:34N 32°20' W 090°54'1 0.7
2017-Jan-16 12:34N 32°20' W 090°54'1 0.9
2017-Jan-16 11:33N 32°20' W 090°54'3 2.7
2017-Jan-16 10:34N 32°23' W 090°53'0 0.0
2017-Jan-16 09:34N 32°23' W 090°53'0 0.0
2017-Jan-16 08:34N 32°23' W 090°53'0 0.0
2017-Jan-16 07:34N 32°23' W 090°53'0 0.0
2017-Jan-16 06:33N 32°23' W 090°53'0 0.0
2017-Jan-16 05:34N 32°23' W 090°53'0 0.0
2017-Jan-16 04:34N 32°23' W 090°53'2 1.8
2017-Jan-16 03:33N 32°21' W 090°53'2 1.7
2017-Jan-16 02:33N 32°23' W 090°53'1 0.5
2017-Jan-16 01:34N 32°23' W 090°54'3 2.5
2017-Jan-16 00:34N 32°21' W 090°53'0 0.2
2017-Jan-15 23:33N 32°20' W 090°54'3 2.7
2017-Jan-15 22:33N 32°18' W 090°55'5 5.1
2017-Jan-15 21:33N 32°23' W 090°53'1 0.5
2017-Jan-15 20:33N 32°23' W 090°53'0 0.0
2017-Jan-15 19:33N 32°23' W 090°53'0 0.0
2017-Jan-15 18:33N 32°23' W 090°53'2 2.4
2017-Jan-15 17:33N 32°21' W 090°53'3 3.0
2017-Jan-15 16:33N 32°18' W 090°55'4 4.1
2017-Jan-15 15:33N 32°22' W 090°53'1 0.6
2017-Jan-15 14:33N 32°21' W 090°53'2 2.2
2017-Jan-15 13:33N 32°23' W 090°54'4 3.7
2017-Jan-15 12:33N 32°20' W 090°54'0 0.0
2017-Jan-15 11:33N 32°20' W 090°54'0 0.0
2017-Jan-15 10:33N 32°20' W 090°54'2 1.7
2017-Jan-15 09:33N 32°18' W 090°55'2 2.0
2017-Jan-15 08:33N 32°20' W 090°54'1 1.3
2017-Jan-15 07:33N 32°19' W 090°55'2 1.6
2017-Jan-15 06:33N 32°18' W 090°56'3 2.9
2017-Jan-15 05:33N 32°20' W 090°54'2 2.2
2017-Jan-15 04:33N 32°21' W 090°56'1 1.2
2017-Jan-15 03:33N 32°21' W 090°58'1 1.2
2017-Jan-15 02:33N 32°21' W 090°56'3 3.3
2017-Jan-15 01:33N 32°22' W 090°53'2 2.5
2017-Jan-15 00:33N 32°20' W 090°54'0 0.5
2017-Jan-14 23:33N 32°20' W 090°54'0 0.1
2017-Jan-14 22:33N 32°20' W 090°54'3 3.2
2017-Jan-14 21:33N 32°23' W 090°52'1 0.9
2017-Jan-14 20:33N 32°23' W 090°53'0 0.0
2017-Jan-14 19:33N 32°23' W 090°53'0 0.0
2017-Jan-14 18:33N 32°23' W 090°53'0 0.0
2017-Jan-14 17:33N 32°23' W 090°53'0 0.0
2017-Jan-14 16:33N 32°23' W 090°53'0 0.0
2017-Jan-14 15:33N 32°23' W 090°53'0 0.0
2017-Jan-14 14:33N 32°23' W 090°53'3 3.2
2017-Jan-14 13:33N 32°20' W 090°54'0 0.4
2017-Jan-14 12:33N 32°20' W 090°54'0 0.0
2017-Jan-14 11:33N 32°20' W 090°54'4 3.6
2017-Jan-14 10:33N 32°23' W 090°53'0 0.5
2017-Jan-14 09:33N 32°23' W 090°53'0 0.0
2017-Jan-14 08:33N 32°23' W 090°53'0 0.0
2017-Jan-14 07:33N 32°23' W 090°53'0 0.0
2017-Jan-14 06:34N 32°23' W 090°53'0 0.0
2017-Jan-14 05:33N 32°23' W 090°53'0 0.0
2017-Jan-14 04:33N 32°23' W 090°53'0 0.0
2017-Jan-14 03:33N 32°23' W 090°53'4 0.9
2017-Jan-13 23:33N 32°20' W 090°54'4 3.6
2017-Jan-13 22:33N 32°23' W 090°54'1 0.6
2017-Jan-13 21:33N 32°23' W 090°53'0 0.1
2017-Jan-13 20:33N 32°23' W 090°53'0 0.0
2017-Jan-13 19:33N 32°23' W 090°53'1 0.8
2017-Jan-13 18:33N 32°23' W 090°53'1 0.8
2017-Jan-13 17:33N 32°23' W 090°53'0 0.1
2017-Jan-13 16:33N 32°23' W 090°53'0 0.2
2017-Jan-13 15:33N 32°23' W 090°53'1 0.8
2017-Jan-13 14:33N 32°23' W 090°52'0 0.5
2017-Jan-13 13:33N 32°22' W 090°53'3 2.7
2017-Jan-13 12:33N 32°20' W 090°54'3 3.5
2017-Jan-13 11:33N 32°23' W 090°53'1 0.6
2017-Jan-13 10:34N 32°23' W 090°53'0 0.0
2017-Jan-13 09:34N 32°23' W 090°53'0 0.0
2017-Jan-13 08:34N 32°23' W 090°53'0 0.0
2017-Jan-13 07:34N 32°23' W 090°53'1 0.7
2017-Jan-13 06:33N 32°23' W 090°53'2 1.7
2017-Jan-13 05:34N 32°23' W 090°55'2 1.9
2017-Jan-13 04:33N 32°23' W 090°52'1 1.0
2017-Jan-13 03:34N 32°23' W 090°53'  

Dump ship's entire track history